createdAt,value
2023-08-24T00:00:56.963Z,30.23
2023-08-24T00:03:27.221Z,32.00
2023-08-24T00:05:57.545Z,31.38
2023-08-24T00:08:28.605Z,31.52
2023-08-24T00:11:03.235Z,30.15
2023-08-24T00:13:59.537Z,31.20
2023-08-24T00:16:30.024Z,33.58
2023-08-24T00:19:00.669Z,29.23
2023-08-24T00:21:34.231Z,32.22
2023-08-24T00:24:05.816Z,40.30
2023-08-24T00:26:36.951Z,35.38
2023-08-24T00:29:09.535Z,32.35
2023-08-24T00:31:42.304Z,29.50
2023-08-24T00:34:14.604Z,33.33
2023-08-24T00:36:45.064Z,30.48
2023-08-24T00:39:15.069Z,32.80
2023-08-24T00:41:46.938Z,34.15
2023-08-24T00:44:19.436Z,35.22
2023-08-24T00:46:50.346Z,35.83
2023-08-24T00:49:20.368Z,34.10
2023-08-24T00:51:53.137Z,33.20
2023-08-24T00:54:25.202Z,33.53
2023-08-24T00:56:57.444Z,30.75
2023-08-24T00:59:28.643Z,34.65
2023-08-24T01:01:59.516Z,31.25
2023-08-24T01:04:32.373Z,33.15
2023-08-24T01:07:03.093Z,35.50
2023-08-24T01:09:33.512Z,35.85
2023-08-24T01:12:22.904Z,32.65
2023-08-24T01:15:14.784Z,31.42
2023-08-24T01:17:46.566Z,35.25
2023-08-24T01:20:20.739Z,37.40
2023-08-24T01:23:09.793Z,32.55
2023-08-24T01:25:55.920Z,33.42
2023-08-24T01:28:27.775Z,33.17
2023-08-24T01:31:00.652Z,36.22
2023-08-24T01:33:35.723Z,31.67
2023-08-24T01:36:14.530Z,37.45
2023-08-24T01:38:45.945Z,31.65
2023-08-24T01:41:24.133Z,31.80
2023-08-24T01:44:00.837Z,35.58
2023-08-24T01:46:36.654Z,34.53
2023-08-24T01:49:11.051Z,39.03
2023-08-24T01:51:45.189Z,37.95
2023-08-24T01:54:42.349Z,34.80
2023-08-24T01:57:14.657Z,40.20
2023-08-24T01:59:45.052Z,39.00
2023-08-24T02:02:15.658Z,37.97
2023-08-24T02:04:47.272Z,37.53
2023-08-24T02:07:19.741Z,35.53
2023-08-24T02:09:52.055Z,33.65
2023-08-24T02:12:23.624Z,32.80
2023-08-24T02:14:54.184Z,34.58
2023-08-24T02:17:24.624Z,31.92
2023-08-24T02:19:54.894Z,33.80
2023-08-24T02:22:24.809Z,31.58
2023-08-24T02:24:57.413Z,30.90
2023-08-24T02:27:27.932Z,37.33
2023-08-24T02:29:58.644Z,35.70
2023-08-24T02:32:31.263Z,40.60
2023-08-24T02:35:02.511Z,33.25
2023-08-24T02:37:34.581Z,36.70
2023-08-24T02:40:08.754Z,35.95
2023-08-24T02:42:42.045Z,31.30
2023-08-24T02:45:17.865Z,35.78
2023-08-24T02:47:50.463Z,34.63
2023-08-24T02:50:24.340Z,34.67
2023-08-24T02:53:31.274Z,38.00
2023-08-24T02:56:04.753Z,34.08
2023-08-24T02:58:38.375Z,32.78
2023-08-24T03:01:12.655Z,35.10
2023-08-24T03:03:43.014Z,34.63
2023-08-24T03:06:16.120Z,34.83
2023-08-24T03:11:18.910Z,35.67
2023-08-24T03:13:50.212Z,37.88
2023-08-24T03:16:22.158Z,31.70
2023-08-24T03:18:55.028Z,33.83
2023-08-24T03:21:27.889Z,33.03
2023-08-24T03:24:00.774Z,37.10
2023-08-24T03:26:31.773Z,34.83
2023-08-24T03:29:02.153Z,32.83
2023-08-24T03:31:34.188Z,34.85
2023-08-24T03:34:07.792Z,31.73
2023-08-24T03:36:40.424Z,35.78
2023-08-24T03:39:11.467Z,36.45
2023-08-24T03:41:45.418Z,34.65
2023-08-24T03:44:16.259Z,33.33
2023-08-24T03:46:46.367Z,31.40
2023-08-24T03:49:22.096Z,36.00
2023-08-24T03:51:53.134Z,33.17
2023-08-24T03:54:25.457Z,33.80
2023-08-24T03:56:57.245Z,37.83
2023-08-24T03:59:31.085Z,36.35
2023-08-24T04:02:04.571Z,35.70
2023-08-24T04:04:34.837Z,33.97
2023-08-24T04:07:07.696Z,32.80
2023-08-24T04:09:40.405Z,35.83
2023-08-24T04:12:11.724Z,38.88
2023-08-24T04:14:42.540Z,35.42
2023-08-24T04:17:12.688Z,36.05
2023-08-24T04:19:45.470Z,35.80
2023-08-24T04:22:17.732Z,32.78
2023-08-24T04:24:48.547Z,34.03
2023-08-24T04:27:19.288Z,34.70
2023-08-24T04:29:51.408Z,34.42
2023-08-24T04:32:27.824Z,38.20
2023-08-24T04:34:58.174Z,33.47
2023-08-24T04:37:28.098Z,34.63
2023-08-24T04:40:23.358Z,37.25
2023-08-24T04:42:56.824Z,32.97
2023-08-24T04:45:27.134Z,39.40
2023-08-24T04:48:01.655Z,37.60
2023-08-24T04:50:32.568Z,35.60
2023-08-24T04:53:05.069Z,35.10
2023-08-24T04:55:35.323Z,38.17
2023-08-24T04:58:05.766Z,37.38
2023-08-24T05:00:38.045Z,36.30
2023-08-24T05:03:11.545Z,32.88
2023-08-24T05:05:43.560Z,37.58
2023-08-24T05:08:13.860Z,38.85
2023-08-24T05:10:51.222Z,34.33
2023-08-24T05:13:24.383Z,40.00
2023-08-24T05:15:54.583Z,36.10
2023-08-24T05:18:24.571Z,37.53
2023-08-24T05:20:58.422Z,40.35
2023-08-24T05:23:28.591Z,36.33
2023-08-24T05:26:03.594Z,45.72
2023-08-24T05:28:38.037Z,41.78
2023-08-24T05:31:11.150Z,45.08
2023-08-24T05:33:47.392Z,49.60
2023-08-24T05:36:18.393Z,48.53
2023-08-24T05:41:24.035Z,40.88
2023-08-24T05:43:55.820Z,43.10
2023-08-24T05:46:26.280Z,44.78
2023-08-24T05:48:56.760Z,46.42
2023-08-24T05:51:28.677Z,42.85
2023-08-24T05:54:01.846Z,38.38
2023-08-24T05:56:34.140Z,41.22
2023-08-24T05:59:06.589Z,40.60
2023-08-24T06:01:40.657Z,41.67
2023-08-24T06:04:16.257Z,41.20
2023-08-24T06:06:48.575Z,43.05
2023-08-24T06:09:18.578Z,45.78
2023-08-24T06:11:50.110Z,41.60
2023-08-24T06:14:21.450Z,42.53
2023-08-24T06:16:51.395Z,42.33
2023-08-24T06:19:22.719Z,38.63
2023-08-24T06:21:53.422Z,42.00
2023-08-24T06:24:26.458Z,42.95
2023-08-24T06:26:58.445Z,39.60
2023-08-24T06:29:31.543Z,36.28
2023-08-24T06:32:02.078Z,43.45
2023-08-24T06:34:33.120Z,38.65
2023-08-24T06:37:05.865Z,35.03
2023-08-24T06:39:37.441Z,36.72
2023-08-24T06:42:13.563Z,37.13
2023-08-24T06:44:47.844Z,37.67
2023-08-24T06:47:20.862Z,37.17
2023-08-24T06:49:50.968Z,36.50
2023-08-24T06:52:23.963Z,39.13
2023-08-24T06:54:58.507Z,40.30
2023-08-24T06:57:28.700Z,43.45
2023-08-24T06:59:58.655Z,34.58
2023-08-24T07:02:29.539Z,34.72
2023-08-24T07:04:59.667Z,37.78
2023-08-24T07:07:34.813Z,41.30
2023-08-24T07:10:06.246Z,37.65
2023-08-24T07:12:36.786Z,37.85
2023-08-24T07:15:17.697Z,34.92
2023-08-24T07:17:50.715Z,36.80
2023-08-24T07:20:22.474Z,37.92
2023-08-24T07:22:53.077Z,35.35
2023-08-24T07:25:24.491Z,35.53
2023-08-24T07:28:00.323Z,36.25
2023-08-24T07:30:33.604Z,35.83
2023-08-24T07:33:05.785Z,39.03
2023-08-24T07:35:37.418Z,37.65
2023-08-24T07:38:08.831Z,37.75
2023-08-24T07:40:41.330Z,37.38
2023-08-24T07:43:11.651Z,35.78
2023-08-24T07:45:44.239Z,37.05
2023-08-24T07:48:15.392Z,37.58
2023-08-24T07:50:47.633Z,35.53
2023-08-24T07:53:17.849Z,37.00
2023-08-24T07:55:50.425Z,36.70
2023-08-24T07:58:23.122Z,37.28
2023-08-24T08:00:53.907Z,36.22
2023-08-24T08:03:24.874Z,36.53
2023-08-24T08:05:58.230Z,39.95
2023-08-24T08:08:30.314Z,36.50
2023-08-24T08:11:05.216Z,37.33
2023-08-24T08:13:36.850Z,38.13
2023-08-24T08:16:09.577Z,36.03
2023-08-24T08:18:42.002Z,37.88
2023-08-24T08:21:19.675Z,40.95
2023-08-24T08:23:52.663Z,39.33
2023-08-24T08:26:25.794Z,34.58
2023-08-24T08:28:58.429Z,38.75
2023-08-24T08:31:28.576Z,37.55
2023-08-24T08:33:58.563Z,36.03
2023-08-24T08:36:29.616Z,35.95
2023-08-24T08:39:00.649Z,42.30
2023-08-24T08:41:43.256Z,41.30
2023-08-24T08:44:17.072Z,37.72
2023-08-24T08:46:52.576Z,37.88
2023-08-24T08:49:23.409Z,36.72
2023-08-24T08:51:56.721Z,34.10
2023-08-24T08:54:26.778Z,38.88
2023-08-24T08:56:58.638Z,40.03
2023-08-24T08:59:32.860Z,40.03
2023-08-24T09:02:08.614Z,37.63
2023-08-24T09:04:41.621Z,39.00
2023-08-24T09:07:13.950Z,42.10
2023-08-24T09:09:45.060Z,39.88
2023-08-24T09:12:15.486Z,41.03
2023-08-24T09:14:47.659Z,38.67
2023-08-24T09:17:26.640Z,35.00
2023-08-24T09:20:01.538Z,38.75
2023-08-24T09:22:43.452Z,43.40
2023-08-24T09:25:14.168Z,39.03
2023-08-24T09:27:45.218Z,39.97
2023-08-24T09:30:15.597Z,45.15
2023-08-24T09:32:47.044Z,48.78
2023-08-24T09:35:18.707Z,42.38
2023-08-24T09:37:51.945Z,38.03
2023-08-24T09:40:28.573Z,42.88
2023-08-24T09:42:59.798Z,39.70
2023-08-24T09:45:31.076Z,38.80
2023-08-24T09:48:03.483Z,36.65
2023-08-24T09:50:34.256Z,39.28
2023-08-24T09:53:06.499Z,41.78
2023-08-24T09:55:42.267Z,40.20
2023-08-24T09:58:12.863Z,35.78
2023-08-24T10:00:46.614Z,37.75
2023-08-24T10:03:22.927Z,39.95
2023-08-24T10:06:09.076Z,37.65
2023-08-24T10:08:47.211Z,38.53
2023-08-24T10:11:23.067Z,43.05
2023-08-24T10:13:58.316Z,45.35
2023-08-24T10:16:31.630Z,42.78
2023-08-24T10:19:05.048Z,44.90
2023-08-24T10:21:39.502Z,44.40
2023-08-24T10:24:13.709Z,42.78
2023-08-24T10:26:45.862Z,47.15
2023-08-24T10:29:22.192Z,42.35
2023-08-24T10:31:54.282Z,46.45
2023-08-24T10:34:28.216Z,39.22
2023-08-24T10:36:59.975Z,43.95
2023-08-24T10:39:31.354Z,43.70
2023-08-24T10:42:09.134Z,44.90
2023-08-24T10:44:45.478Z,40.72
2023-08-24T10:47:18.227Z,38.45
2023-08-24T10:50:00.448Z,39.97
2023-08-24T10:52:38.713Z,45.40
2023-08-24T10:55:26.858Z,48.80
2023-08-24T10:58:03.806Z,46.22
2023-08-24T11:00:38.569Z,43.75
2023-08-24T11:03:12.571Z,41.72
2023-08-24T11:05:46.334Z,42.63
2023-08-24T11:08:16.685Z,42.30
2023-08-24T11:10:48.628Z,48.25
2023-08-24T11:13:25.318Z,45.35
2023-08-24T11:15:59.715Z,42.67
2023-08-24T11:18:31.794Z,41.35
2023-08-24T11:21:07.938Z,46.90
2023-08-24T11:23:41.247Z,44.67
2023-08-24T11:26:16.957Z,42.67
2023-08-24T11:28:47.956Z,40.30
2023-08-24T11:31:17.950Z,47.40
2023-08-24T11:33:53.210Z,48.22
2023-08-24T11:36:48.842Z,48.97
2023-08-24T11:39:22.965Z,44.53
2023-08-24T11:42:11.719Z,46.97
2023-08-24T11:44:54.006Z,40.63
2023-08-24T11:47:26.791Z,41.80
2023-08-24T11:50:01.549Z,47.70
2023-08-24T11:52:34.333Z,53.90
2023-08-24T11:55:08.787Z,51.90
2023-08-24T11:57:41.626Z,55.58
2023-08-24T12:00:22.123Z,49.15
2023-08-24T12:02:52.637Z,46.35
2023-08-24T12:05:27.770Z,44.17
2023-08-24T12:08:03.298Z,45.33
2023-08-24T12:10:44.861Z,47.22
2023-08-24T12:13:15.923Z,45.00
2023-08-24T12:15:49.543Z,39.38
2023-08-24T12:18:21.668Z,44.65
2023-08-24T12:21:23.079Z,40.63
2023-08-24T12:24:10.839Z,41.63
2023-08-24T12:26:45.923Z,41.97
2023-08-24T12:29:17.330Z,39.92
2023-08-24T12:31:52.919Z,40.92
2023-08-24T12:34:23.228Z,42.38
2023-08-24T12:36:55.094Z,39.78
2023-08-24T12:39:27.605Z,42.67
2023-08-24T12:42:03.132Z,41.28
2023-08-24T12:44:36.305Z,41.22
2023-08-24T12:47:06.535Z,39.45
2023-08-24T12:49:36.492Z,38.97
2023-08-24T12:52:09.682Z,41.22
2023-08-24T12:54:41.408Z,36.17
2023-08-24T12:57:12.912Z,42.90
2023-08-24T12:59:43.934Z,35.33
2023-08-24T13:02:29.258Z,36.03
2023-08-24T13:05:08.259Z,36.97
2023-08-24T13:07:41.898Z,40.67
2023-08-24T13:10:14.363Z,41.78
2023-08-24T13:12:50.279Z,41.95
2023-08-24T13:24:50.249Z,42.65
2023-08-24T13:28:23.078Z,39.70
2023-08-24T13:30:57.183Z,35.20
2023-08-24T13:33:54.555Z,38.33
2023-08-24T13:37:44.452Z,36.25
2023-08-24T13:44:40.077Z,39.10
2023-08-24T13:52:00.144Z,36.67
2023-08-24T13:55:13.362Z,38.30
2023-08-24T13:58:09.913Z,37.00
2023-08-24T14:01:06.344Z,36.35
2023-08-24T14:06:55.701Z,37.35
2023-08-24T14:12:42.265Z,36.33
2023-08-24T14:15:14.172Z,39.53
2023-08-24T14:22:04.019Z,36.92
2023-08-24T14:28:54.579Z,40.85
2023-08-24T14:31:27.141Z,35.45
2023-08-24T14:33:57.639Z,38.20
2023-08-24T14:36:28.939Z,36.28
2023-08-24T14:41:33.595Z,37.58
2023-08-24T14:44:04.113Z,38.85
2023-08-24T14:46:36.300Z,35.30
2023-08-24T14:49:08.175Z,34.67
2023-08-24T14:51:38.440Z,41.40
2023-08-24T14:54:09.715Z,35.67
2023-08-24T14:57:54.963Z,38.80
2023-08-24T15:00:27.127Z,41.92
2023-08-24T15:05:28.390Z,33.65
2023-08-24T15:08:05.325Z,42.33
2023-08-24T15:10:39.738Z,38.42
2023-08-24T15:14:22.232Z,37.65
2023-08-24T15:19:41.451Z,34.67
2023-08-24T15:22:14.673Z,35.33
2023-08-24T15:29:20.133Z,38.97
2023-08-24T15:31:51.360Z,37.15
2023-08-24T15:34:22.646Z,35.00
2023-08-24T15:36:55.670Z,34.70
2023-08-24T15:39:28.224Z,32.58
2023-08-24T15:42:01.521Z,29.92
2023-08-24T15:44:35.729Z,36.05
2023-08-24T15:47:06.282Z,33.65
2023-08-24T15:49:43.361Z,34.92
2023-08-24T15:52:21.090Z,35.13
2023-08-24T15:54:55.196Z,35.75
2023-08-24T15:57:26.217Z,36.90
2023-08-24T15:59:56.946Z,33.35
2023-08-24T16:02:27.820Z,37.17
2023-08-24T16:05:00.519Z,34.42
2023-08-24T16:07:32.451Z,36.33
2023-08-24T16:10:04.247Z,35.40
2023-08-24T16:12:41.398Z,34.97
2023-08-24T16:15:14.966Z,36.53
2023-08-24T16:17:45.526Z,35.42
2023-08-24T16:33:06.090Z,35.38
2023-08-24T16:36:15.562Z,38.20
2023-08-24T16:38:48.408Z,36.88
2023-08-24T16:53:34.146Z,28.27
2023-08-24T16:56:31.294Z,33.03
2023-08-24T16:59:02.044Z,37.78
2023-08-24T17:01:32.320Z,36.15
2023-08-24T17:04:07.304Z,31.55
2023-08-24T17:07:32.561Z,32.58
2023-08-24T17:10:34.446Z,33.58
2023-08-24T17:17:19.883Z,32.88
2023-08-24T17:23:08.265Z,29.45
2023-08-24T17:26:07.183Z,32.63
2023-08-24T17:28:53.109Z,34.60
2023-08-24T17:31:25.437Z,27.33
2023-08-24T17:34:00.094Z,20.45
2023-08-24T17:36:31.883Z,26.65
2023-08-24T17:39:08.274Z,34.65
2023-08-24T17:41:44.529Z,30.27
2023-08-24T17:44:16.253Z,31.30
2023-08-24T17:46:49.552Z,24.83
2023-08-24T17:49:19.860Z,27.02
2023-08-24T17:51:52.017Z,25.30
2023-08-24T17:54:25.130Z,22.45
2023-08-24T17:56:56.269Z,33.10
2023-08-24T17:59:29.053Z,33.25
2023-08-24T18:02:00.320Z,25.27
2023-08-24T18:04:31.332Z,31.17
2023-08-24T18:07:01.614Z,23.35
2023-08-24T18:09:33.224Z,22.10
2023-08-24T18:12:04.921Z,24.90
2023-08-24T18:14:35.314Z,29.40
2023-08-24T18:17:07.026Z,27.42
2023-08-24T18:19:37.846Z,27.10
2023-08-24T18:22:09.496Z,30.20
2023-08-24T18:24:43.828Z,25.08
2023-08-24T18:27:14.403Z,26.05
2023-08-24T18:29:44.975Z,26.38
2023-08-24T18:32:16.129Z,28.05
2023-08-24T18:34:47.695Z,26.83
2023-08-24T18:37:18.573Z,19.80
2023-08-24T18:39:50.384Z,26.50
2023-08-24T18:42:22.830Z,22.50
2023-08-24T18:45:02.274Z,24.45
2023-08-24T18:56:07.167Z,20.73
2023-08-24T18:58:37.916Z,22.25
2023-08-24T19:01:12.960Z,24.15
2023-08-24T19:03:44.263Z,20.25
2023-08-24T19:06:24.791Z,20.00
2023-08-24T19:09:00.976Z,22.85
2023-08-24T19:11:36.359Z,20.05
2023-08-24T19:14:08.061Z,21.73
2023-08-24T19:16:39.039Z,21.42
2023-08-24T19:19:11.205Z,18.80
2023-08-24T19:21:44.873Z,19.40
2023-08-24T19:24:16.340Z,18.08
2023-08-24T19:26:47.460Z,16.83
2023-08-24T19:29:19.523Z,19.02
2023-08-24T19:31:51.961Z,19.25
2023-08-24T19:34:22.704Z,20.88
2023-08-24T19:36:53.667Z,22.25
2023-08-24T19:39:26.030Z,19.25
2023-08-24T19:42:00.368Z,19.98
2023-08-24T19:44:31.214Z,25.55
2023-08-24T19:47:01.365Z,19.65
2023-08-24T19:49:33.806Z,19.48
2023-08-24T19:52:05.452Z,21.27
2023-08-24T19:54:35.862Z,18.63
2023-08-24T19:57:06.364Z,21.98
2023-08-24T19:59:37.829Z,20.13
2023-08-24T20:02:12.871Z,19.40
2023-08-24T20:04:47.269Z,16.88
2023-08-24T20:07:17.495Z,18.40
2023-08-24T20:09:49.591Z,18.17
2023-08-24T20:12:22.019Z,17.88
2023-08-24T20:14:52.791Z,16.60
2023-08-24T20:17:33.133Z,15.07
2023-08-24T20:20:06.057Z,17.00
2023-08-24T20:22:39.272Z,13.38
2023-08-24T20:25:10.929Z,13.57
2023-08-24T20:27:42.823Z,12.80
2023-08-24T20:30:15.011Z,11.80
2023-08-24T20:32:47.537Z,17.17
2023-08-24T20:35:17.858Z,12.15
2023-08-24T20:37:48.706Z,13.32
2023-08-24T20:40:22.382Z,14.00
2023-08-24T20:42:58.384Z,12.23
2023-08-24T20:45:34.266Z,12.65
2023-08-24T20:48:08.901Z,13.18
2023-08-24T20:50:41.103Z,13.05
2023-08-24T20:53:17.858Z,13.75
2023-08-24T20:55:53.057Z,14.00
2023-08-24T20:58:25.327Z,14.55
2023-08-24T21:00:57.102Z,14.50
2023-08-24T21:06:02.972Z,12.30
2023-08-24T21:08:34.540Z,17.15
2023-08-24T21:11:06.324Z,15.63
2023-08-24T21:13:37.458Z,14.43
2023-08-24T21:16:08.064Z,11.40
2023-08-24T21:18:39.050Z,17.23
2023-08-24T21:21:11.215Z,13.02
2023-08-24T21:23:44.712Z,9.38
2023-08-24T21:26:16.304Z,10.90
2023-08-24T21:28:46.629Z,11.57
2023-08-24T21:31:17.027Z,12.15
2023-08-24T21:33:48.942Z,10.32
2023-08-24T21:36:20.209Z,7.75
2023-08-24T21:38:55.774Z,11.43
2023-08-24T21:41:26.673Z,8.52
2023-08-24T21:48:50.338Z,8.85
2023-08-24T22:11:41.031Z,6.97
2023-08-24T22:14:13.893Z,18.52
2023-08-24T22:16:44.061Z,7.47
2023-08-24T22:19:26.790Z,9.48
2023-08-24T22:21:59.470Z,8.82
2023-08-24T22:24:34.712Z,7.50
2023-08-24T22:27:09.149Z,9.27
2023-08-24T22:29:39.737Z,11.63
2023-08-24T22:32:13.782Z,12.63
2023-08-24T22:34:45.761Z,8.45
2023-08-24T22:37:17.145Z,10.68
2023-08-24T22:39:48.196Z,7.70
2023-08-24T22:42:23.024Z,12.38
2023-08-24T22:44:56.084Z,12.57
2023-08-24T22:47:26.796Z,7.97
2023-08-24T22:50:00.026Z,7.93
2023-08-24T22:52:34.325Z,6.20
2023-08-24T22:55:08.359Z,9.35
2023-08-24T22:57:39.410Z,6.50
2023-08-24T23:00:11.690Z,9.20
2023-08-24T23:02:44.015Z,6.43
2023-08-24T23:05:18.307Z,5.78
2023-08-24T23:07:52.781Z,5.88
2023-08-24T23:10:25.777Z,6.57
2023-08-24T23:12:57.549Z,5.15
2023-08-24T23:15:30.794Z,12.75
2023-08-24T23:18:02.272Z,5.38
2023-08-24T23:20:32.443Z,6.15
2023-08-24T23:23:04.568Z,6.63
2023-08-24T23:25:37.581Z,7.50
2023-08-24T23:28:10.272Z,6.65
2023-08-24T23:30:41.261Z,5.18
2023-08-24T23:33:16.405Z,6.03
2023-08-24T23:35:48.370Z,5.57
2023-08-24T23:38:25.653Z,6.82
2023-08-24T23:41:05.785Z,6.90
2023-08-24T23:43:39.584Z,6.03
2023-08-24T23:46:10.252Z,7.88
2023-08-24T23:48:40.543Z,4.70
2023-08-24T23:51:13.354Z,6.97
2023-08-24T23:53:45.137Z,5.25
2023-08-24T23:56:23.108Z,7.25
2023-08-24T23:58:55.436Z,5.15
